sensor_id;sensor_type;location;lat;lon;timestamp;P1;durP1;ratioP1;P2;durP2;ratioP2
24030;SDS011;12240;51.142;22.486;2023-12-04T00:02:43;28.00;;;9.00;;
24030;SDS011;12240;51.142;22.486;2023-12-04T00:05:13;20.30;;;7.70;;
24030;SDS011;12240;51.142;22.486;2023-12-04T00:07:40;23.70;;;9.30;;
24030;SDS011;12240;51.142;22.486;2023-12-04T00:10:07;25.50;;;8.40;;
24030;SDS011;12240;51.142;22.486;2023-12-04T00:12:34;30.50;;;9.50;;
24030;SDS011;12240;51.142;22.486;2023-12-04T00:15:01;28.50;;;9.90;;
24030;SDS011;12240;51.142;22.486;2023-12-04T00:17:28;29.40;;;10.60;;
24030;SDS011;12240;51.142;22.486;2023-12-04T00:19:56;29.70;;;10.40;;
24030;SDS011;12240;51.142;22.486;2023-12-04T00:22:22;29.90;;;9.90;;
24030;SDS011;12240;51.142;22.486;2023-12-04T00:24:50;30.60;;;10.20;;
24030;SDS011;12240;51.142;22.486;2023-12-04T00:27:17;35.00;;;11.00;;
24030;SDS011;12240;51.142;22.486;2023-12-04T00:29:43;30.50;;;10.50;;
24030;SDS011;12240;51.142;22.486;2023-12-04T00:32:10;28.10;;;10.60;;
24030;SDS011;12240;51.142;22.486;2023-12-04T00:34:37;32.00;;;10.30;;
24030;SDS011;12240;51.142;22.486;2023-12-04T00:37:03;27.90;;;9.60;;
24030;SDS011;12240;51.142;22.486;2023-12-04T00:39:30;30.20;;;10.80;;
24030;SDS011;12240;51.142;22.486;2023-12-04T00:41:57;26.00;;;9.60;;
24030;SDS011;12240;51.142;22.486;2023-12-04T00:44:24;29.80;;;10.40;;
24030;SDS011;12240;51.142;22.486;2023-12-04T00:46:51;26.30;;;10.00;;
24030;SDS011;12240;51.142;22.486;2023-12-04T00:49:18;34.90;;;11.10;;
24030;SDS011;12240;51.142;22.486;2023-12-04T00:51:45;31.40;;;11.40;;
24030;SDS011;12240;51.142;22.486;2023-12-04T01:01:41;27.60;;;8.00;;
24030;SDS011;12240;51.142;22.486;2023-12-04T01:04:08;30.90;;;10.40;;
24030;SDS011;12240;51.142;22.486;2023-12-04T01:06:35;35.40;;;11.90;;
24030;SDS011;12240;51.142;22.486;2023-12-04T01:09:02;34.20;;;11.40;;
24030;SDS011;12240;51.142;22.486;2023-12-04T01:11:29;30.70;;;10.80;;
24030;SDS011;12240;51.142;22.486;2023-12-04T01:13:56;30.80;;;9.90;;
24030;SDS011;12240;51.142;22.486;2023-12-04T01:16:23;30.20;;;11.00;;
24030;SDS011;12240;51.142;22.486;2023-12-04T01:18:50;32.10;;;10.60;;
24030;SDS011;12240;51.142;22.486;2023-12-04T01:21:17;31.90;;;11.10;;
24030;SDS011;12240;51.142;22.486;2023-12-04T01:23:44;28.90;;;10.90;;
24030;SDS011;12240;51.142;22.486;2023-12-04T01:26:10;32.80;;;11.20;;
24030;SDS011;12240;51.142;22.486;2023-12-04T01:28:38;27.70;;;9.90;;
24030;SDS011;12240;51.142;22.486;2023-12-04T01:31:06;38.90;;;11.60;;
24030;SDS011;12240;51.142;22.486;2023-12-04T01:33:33;32.40;;;11.40;;
24030;SDS011;12240;51.142;22.486;2023-12-04T01:36:01;35.10;;;12.20;;
24030;SDS011;12240;51.142;22.486;2023-12-04T01:38:28;39.30;;;12.20;;
24030;SDS011;12240;51.142;22.486;2023-12-04T01:40:55;36.90;;;12.30;;
24030;SDS011;12240;51.142;22.486;2023-12-04T01:43:22;31.70;;;11.60;;
24030;SDS011;12240;51.142;22.486;2023-12-04T01:45:49;35.10;;;11.70;;
24030;SDS011;12240;51.142;22.486;2023-12-04T01:48:18;33.30;;;11.00;;
24030;SDS011;12240;51.142;22.486;2023-12-04T01:50:46;36.00;;;11.40;;
24030;SDS011;12240;51.142;22.486;2023-12-04T01:53:13;35.10;;;12.40;;
24030;SDS011;12240;51.142;22.486;2023-12-04T01:55:41;29.60;;;9.60;;
24030;SDS011;12240;51.142;22.486;2023-12-04T01:58:08;32.90;;;12.50;;
24030;SDS011;12240;51.142;22.486;2023-12-04T02:00:36;30.10;;;10.90;;
24030;SDS011;12240;51.142;22.486;2023-12-04T02:03:03;35.60;;;11.30;;
24030;SDS011;12240;51.142;22.486;2023-12-04T02:05:31;32.70;;;10.80;;
24030;SDS011;12240;51.142;22.486;2023-12-04T02:07:58;36.40;;;11.80;;
24030;SDS011;12240;51.142;22.486;2023-12-04T02:10:27;43.50;;;12.40;;
24030;SDS011;12240;51.142;22.486;2023-12-04T02:12:53;37.10;;;12.00;;
24030;SDS011;12240;51.142;22.486;2023-12-04T02:15:21;21.90;;;8.40;;
24030;SDS011;12240;51.142;22.486;2023-12-04T02:17:48;31.30;;;10.60;;
24030;SDS011;12240;51.142;22.486;2023-12-04T02:20:16;29.30;;;10.70;;
24030;SDS011;12240;51.142;22.486;2023-12-04T02:22:43;27.70;;;9.80;;
24030;SDS011;12240;51.142;22.486;2023-12-04T02:25:10;34.70;;;11.70;;
24030;SDS011;12240;51.142;22.486;2023-12-04T02:27:59;31.40;;;10.90;;
24030;SDS011;12240;51.142;22.486;2023-12-04T02:30:29;39.60;;;12.80;;
24030;SDS011;12240;51.142;22.486;2023-12-04T02:32:59;32.50;;;12.50;;
24030;SDS011;12240;51.142;22.486;2023-12-04T02:35:29;33.90;;;11.00;;
24030;SDS011;12240;51.142;22.486;2023-12-04T02:38:02;42.30;;;13.10;;
24030;SDS011;12240;51.142;22.486;2023-12-04T02:40:29;36.60;;;12.10;;
24030;SDS011;12240;51.142;22.486;2023-12-04T02:42:56;38.00;;;15.10;;
24030;SDS011;12240;51.142;22.486;2023-12-04T02:45:23;38.00;;;12.30;;
24030;SDS011;12240;51.142;22.486;2023-12-04T02:47:50;34.50;;;12.60;;
24030;SDS011;12240;51.142;22.486;2023-12-04T02:50:16;41.40;;;14.10;;
24030;SDS011;12240;51.142;22.486;2023-12-04T02:52:43;29.50;;;10.70;;
24030;SDS011;12240;51.142;22.486;2023-12-04T02:55:10;35.60;;;13.40;;
24030;SDS011;12240;51.142;22.486;2023-12-04T02:57:36;42.20;;;15.00;;
24030;SDS011;12240;51.142;22.486;2023-12-04T03:00:03;30.80;;;13.00;;
24030;SDS011;12240;51.142;22.486;2023-12-04T03:02:31;45.40;;;14.60;;
24030;SDS011;12240;51.142;22.486;2023-12-04T03:04:57;43.70;;;14.30;;
24030;SDS011;12240;51.142;22.486;2023-12-04T03:07:24;39.00;;;12.60;;
24030;SDS011;12240;51.142;22.486;2023-12-04T03:09:52;40.60;;;13.60;;
24030;SDS011;12240;51.142;22.486;2023-12-04T03:12:19;41.50;;;14.40;;
24030;SDS011;12240;51.142;22.486;2023-12-04T03:14:46;36.50;;;12.50;;
24030;SDS011;12240;51.142;22.486;2023-12-04T03:17:13;43.60;;;15.90;;
24030;SDS011;12240;51.142;22.486;2023-12-04T03:19:39;45.30;;;15.50;;
24030;SDS011;12240;51.142;22.486;2023-12-04T03:22:06;37.20;;;13.00;;
24030;SDS011;12240;51.142;22.486;2023-12-04T03:24:33;43.70;;;14.30;;
24030;SDS011;12240;51.142;22.486;2023-12-04T03:27:00;41.00;;;14.70;;
24030;SDS011;12240;51.142;22.486;2023-12-04T03:29:27;46.80;;;15.50;;
24030;SDS011;12240;51.142;22.486;2023-12-04T03:31:53;46.80;;;14.50;;
24030;SDS011;12240;51.142;22.486;2023-12-04T03:34:20;50.00;;;15.80;;
24030;SDS011;12240;51.142;22.486;2023-12-04T03:36:47;41.10;;;13.70;;
24030;SDS011;12240;51.142;22.486;2023-12-04T03:39:14;43.00;;;16.80;;
24030;SDS011;12240;51.142;22.486;2023-12-04T03:41:40;47.30;;;16.00;;
24030;SDS011;12240;51.142;22.486;2023-12-04T03:44:07;41.40;;;12.90;;
24030;SDS011;12240;51.142;22.486;2023-12-04T03:46:34;47.90;;;16.40;;
24030;SDS011;12240;51.142;22.486;2023-12-04T03:49:00;45.50;;;15.40;;
24030;SDS011;12240;51.142;22.486;2023-12-04T03:51:27;40.60;;;14.10;;
24030;SDS011;12240;51.142;22.486;2023-12-04T03:53:54;43.10;;;15.40;;
24030;SDS011;12240;51.142;22.486;2023-12-04T03:56:20;45.30;;;14.00;;
24030;SDS011;12240;51.142;22.486;2023-12-04T03:58:47;50.90;;;17.10;;
24030;SDS011;12240;51.142;22.486;2023-12-04T04:01:14;45.10;;;15.40;;
24030;SDS011;12240;51.142;22.486;2023-12-04T04:03:41;44.10;;;15.60;;
24030;SDS011;12240;51.142;22.486;2023-12-04T04:06:11;36.00;;;13.90;;
24030;SDS011;12240;51.142;22.486;2023-12-04T04:08:38;44.70;;;17.00;;
24030;SDS011;12240;51.142;22.486;2023-12-04T04:11:05;49.00;;;17.40;;
24030;SDS011;12240;51.142;22.486;2023-12-04T04:13:31;39.60;;;14.80;;
24030;SDS011;12240;51.142;22.486;2023-12-04T04:15:58;45.60;;;15.30;;
24030;SDS011;12240;51.142;22.486;2023-12-04T04:18:25;41.60;;;15.70;;
24030;SDS011;12240;51.142;22.486;2023-12-04T04:20:52;41.00;;;14.50;;
24030;SDS011;12240;51.142;22.486;2023-12-04T04:23:18;44.10;;;15.20;;
24030;SDS011;12240;51.142;22.486;2023-12-04T04:25:45;32.60;;;12.20;;
24030;SDS011;12240;51.142;22.486;2023-12-04T04:28:12;42.30;;;14.40;;
24030;SDS011;12240;51.142;22.486;2023-12-04T04:30:39;40.70;;;14.40;;
24030;SDS011;12240;51.142;22.486;2023-12-04T04:33:06;48.70;;;18.10;;
24030;SDS011;12240;51.142;22.486;2023-12-04T04:35:33;46.60;;;15.70;;
24030;SDS011;12240;51.142;22.486;2023-12-04T04:37:59;43.30;;;16.80;;
24030;SDS011;12240;51.142;22.486;2023-12-04T04:40:26;40.50;;;16.10;;
24030;SDS011;12240;51.142;22.486;2023-12-04T04:42:53;40.60;;;15.50;;
24030;SDS011;12240;51.142;22.486;2023-12-04T04:45:19;46.60;;;16.40;;
24030;SDS011;12240;51.142;22.486;2023-12-04T04:47:46;43.20;;;16.10;;
24030;SDS011;12240;51.142;22.486;2023-12-04T04:50:13;45.10;;;15.60;;
24030;SDS011;12240;51.142;22.486;2023-12-04T04:52:40;42.70;;;15.80;;
24030;SDS011;12240;51.142;22.486;2023-12-04T04:55:07;46.10;;;16.40;;
24030;SDS011;12240;51.142;22.486;2023-12-04T04:57:34;44.60;;;15.00;;
24030;SDS011;12240;51.142;22.486;2023-12-04T05:00:01;39.70;;;15.90;;
24030;SDS011;12240;51.142;22.486;2023-12-04T05:02:27;42.10;;;15.20;;
24030;SDS011;12240;51.142;22.486;2023-12-04T05:04:54;45.00;;;16.50;;
24030;SDS011;12240;51.142;22.486;2023-12-04T05:07:21;44.00;;;15.70;;
24030;SDS011;12240;51.142;22.486;2023-12-04T05:09:48;42.20;;;16.80;;
24030;SDS011;12240;51.142;22.486;2023-12-04T05:12:14;33.10;;;12.30;;
24030;SDS011;12240;51.142;22.486;2023-12-04T05:14:41;45.10;;;15.50;;
24030;SDS011;12240;51.142;22.486;2023-12-04T05:17:08;44.10;;;14.50;;
24030;SDS011;12240;51.142;22.486;2023-12-04T05:19:34;46.70;;;15.20;;
24030;SDS011;12240;51.142;22.486;2023-12-04T05:22:01;43.80;;;15.40;;
24030;SDS011;12240;51.142;22.486;2023-12-04T05:24:28;39.80;;;14.80;;
24030;SDS011;12240;51.142;22.486;2023-12-04T05:26:55;40.70;;;14.70;;
24030;SDS011;12240;51.142;22.486;2023-12-04T05:29:21;35.20;;;11.90;;
24030;SDS011;12240;51.142;22.486;2023-12-04T05:31:48;38.60;;;13.40;;
24030;SDS011;12240;51.142;22.486;2023-12-04T05:34:15;36.10;;;13.10;;
24030;SDS011;12240;51.142;22.486;2023-12-04T05:36:41;42.00;;;14.40;;
24030;SDS011;12240;51.142;22.486;2023-12-04T05:39:08;37.40;;;14.40;;
24030;SDS011;12240;51.142;22.486;2023-12-04T05:41:35;44.30;;;15.10;;
24030;SDS011;12240;51.142;22.486;2023-12-04T05:44:02;44.00;;;15.90;;
24030;SDS011;12240;51.142;22.486;2023-12-04T05:46:28;34.50;;;11.70;;
24030;SDS011;12240;51.142;22.486;2023-12-04T05:48:55;37.20;;;12.60;;
24030;SDS011;12240;51.142;22.486;2023-12-04T05:51:22;39.20;;;14.10;;
24030;SDS011;12240;51.142;22.486;2023-12-04T05:53:48;37.30;;;15.10;;
24030;SDS011;12240;51.142;22.486;2023-12-04T05:56:15;44.10;;;15.80;;
24030;SDS011;12240;51.142;22.486;2023-12-04T05:58:42;48.10;;;17.00;;
24030;SDS011;12240;51.142;22.486;2023-12-04T06:01:09;47.40;;;15.30;;
24030;SDS011;12240;51.142;22.486;2023-12-04T06:03:35;48.20;;;16.50;;
24030;SDS011;12240;51.142;22.486;2023-12-04T06:06:02;46.90;;;15.60;;
24030;SDS011;12240;51.142;22.486;2023-12-04T06:08:31;46.60;;;16.50;;
24030;SDS011;12240;51.142;22.486;2023-12-04T06:10:57;48.80;;;16.20;;
24030;SDS011;12240;51.142;22.486;2023-12-04T06:13:24;38.20;;;14.20;;
24030;SDS011;12240;51.142;22.486;2023-12-04T06:15:51;49.30;;;14.70;;
24030;SDS011;12240;51.142;22.486;2023-12-04T06:18:18;42.50;;;14.60;;
24030;SDS011;12240;51.142;22.486;2023-12-04T06:20:46;45.00;;;14.10;;
24030;SDS011;12240;51.142;22.486;2023-12-04T06:23:13;41.00;;;14.60;;
24030;SDS011;12240;51.142;22.486;2023-12-04T06:25:41;36.90;;;13.80;;
24030;SDS011;12240;51.142;22.486;2023-12-04T06:28:08;45.40;;;16.10;;
24030;SDS011;12240;51.142;22.486;2023-12-04T06:30:35;43.90;;;14.60;;
24030;SDS011;12240;51.142;22.486;2023-12-04T06:33:02;41.20;;;14.90;;
24030;SDS011;12240;51.142;22.486;2023-12-04T06:35:29;37.80;;;14.80;;
24030;SDS011;12240;51.142;22.486;2023-12-04T06:37:56;45.20;;;14.70;;
24030;SDS011;12240;51.142;22.486;2023-12-04T06:40:27;44.50;;;16.00;;
24030;SDS011;12240;51.142;22.486;2023-12-04T06:42:54;45.70;;;15.80;;
24030;SDS011;12240;51.142;22.486;2023-12-04T06:45:21;41.80;;;15.50;;
24030;SDS011;12240;51.142;22.486;2023-12-04T06:47:48;45.90;;;16.50;;
24030;SDS011;12240;51.142;22.486;2023-12-04T06:50:17;49.00;;;16.80;;
24030;SDS011;12240;51.142;22.486;2023-12-04T06:52:44;44.00;;;16.60;;
24030;SDS011;12240;51.142;22.486;2023-12-04T06:55:11;43.90;;;15.90;;
24030;SDS011;12240;51.142;22.486;2023-12-04T06:57:39;45.60;;;15.90;;
24030;SDS011;12240;51.142;22.486;2023-12-04T07:00:06;46.30;;;15.80;;
24030;SDS011;12240;51.142;22.486;2023-12-04T07:02:47;45.50;;;16.10;;
24030;SDS011;12240;51.142;22.486;2023-12-04T07:05:16;47.50;;;15.40;;
24030;SDS011;12240;51.142;22.486;2023-12-04T07:07:43;43.40;;;15.10;;
24030;SDS011;12240;51.142;22.486;2023-12-04T07:10:09;38.60;;;15.70;;
24030;SDS011;12240;51.142;22.486;2023-12-04T07:12:42;37.70;;;13.80;;
24030;SDS011;12240;51.142;22.486;2023-12-04T07:15:11;33.70;;;11.50;;
24030;SDS011;12240;51.142;22.486;2023-12-04T07:17:39;44.60;;;15.40;;
24030;SDS011;12240;51.142;22.486;2023-12-04T07:20:06;38.10;;;14.50;;
24030;SDS011;12240;51.142;22.486;2023-12-04T07:22:33;39.20;;;14.50;;
24030;SDS011;12240;51.142;22.486;2023-12-04T07:25:04;41.80;;;15.60;;
24030;SDS011;12240;51.142;22.486;2023-12-04T07:27:34;42.00;;;15.70;;
24030;SDS011;12240;51.142;22.486;2023-12-04T07:30:01;35.60;;;13.40;;
24030;SDS011;12240;51.142;22.486;2023-12-04T07:32:29;44.90;;;16.20;;
24030;SDS011;12240;51.142;22.486;2023-12-04T07:34:56;41.90;;;15.40;;
24030;SDS011;12240;51.142;22.486;2023-12-04T07:37:25;33.00;;;13.20;;
24030;SDS011;12240;51.142;22.486;2023-12-04T07:39:52;43.30;;;15.30;;
24030;SDS011;12240;51.142;22.486;2023-12-04T07:42:19;46.90;;;16.00;;
24030;SDS011;12240;51.142;22.486;2023-12-04T07:44:46;42.20;;;15.50;;
24030;SDS011;12240;51.142;22.486;2023-12-04T07:47:13;45.20;;;15.00;;
24030;SDS011;12240;51.142;22.486;2023-12-04T07:49:40;43.00;;;15.20;;
24030;SDS011;12240;51.142;22.486;2023-12-04T07:52:08;47.00;;;15.20;;
24030;SDS011;12240;51.142;22.486;2023-12-04T07:54:35;46.60;;;17.60;;
24030;SDS011;12240;51.142;22.486;2023-12-04T07:57:02;39.70;;;16.20;;
24030;SDS011;12240;51.142;22.486;2023-12-04T07:59:29;41.30;;;15.50;;
24030;SDS011;12240;51.142;22.486;2023-12-04T08:01:55;44.90;;;17.60;;
24030;SDS011;12240;51.142;22.486;2023-12-04T08:04:22;51.90;;;17.80;;
24030;SDS011;12240;51.142;22.486;2023-12-04T08:06:50;45.50;;;16.50;;
24030;SDS011;12240;51.142;22.486;2023-12-04T08:09:17;46.30;;;16.00;;
24030;SDS011;12240;51.142;22.486;2023-12-04T08:11:45;38.70;;;15.30;;
24030;SDS011;12240;51.142;22.486;2023-12-04T08:14:11;46.40;;;17.80;;
24030;SDS011;12240;51.142;22.486;2023-12-04T08:16:38;51.70;;;18.30;;
24030;SDS011;12240;51.142;22.486;2023-12-04T08:19:05;43.50;;;16.00;;
24030;SDS011;12240;51.142;22.486;2023-12-04T08:21:32;47.00;;;17.60;;
24030;SDS011;12240;51.142;22.486;2023-12-04T08:23:59;53.50;;;19.10;;
24030;SDS011;12240;51.142;22.486;2023-12-04T08:26:26;51.40;;;15.40;;
24030;SDS011;12240;51.142;22.486;2023-12-04T08:28:53;45.00;;;18.10;;
24030;SDS011;12240;51.142;22.486;2023-12-04T08:31:20;52.70;;;16.90;;
24030;SDS011;12240;51.142;22.486;2023-12-04T08:33:46;44.80;;;16.60;;
24030;SDS011;12240;51.142;22.486;2023-12-04T08:36:13;45.60;;;16.70;;
24030;SDS011;12240;51.142;22.486;2023-12-04T08:38:40;43.00;;;15.90;;
24030;SDS011;12240;51.142;22.486;2023-12-04T08:41:07;50.10;;;17.00;;
24030;SDS011;12240;51.142;22.486;2023-12-04T08:43:33;46.90;;;17.30;;
24030;SDS011;12240;51.142;22.486;2023-12-04T08:46:00;46.50;;;17.30;;
24030;SDS011;12240;51.142;22.486;2023-12-04T08:48:27;49.40;;;17.80;;
24030;SDS011;12240;51.142;22.486;2023-12-04T08:50:54;50.50;;;16.90;;
24030;SDS011;12240;51.142;22.486;2023-12-04T08:53:21;47.90;;;17.80;;
24030;SDS011;12240;51.142;22.486;2023-12-04T08:55:47;48.40;;;17.80;;
24030;SDS011;12240;51.142;22.486;2023-12-04T08:58:14;50.60;;;17.50;;
24030;SDS011;12240;51.142;22.486;2023-12-04T09:00:41;47.00;;;17.10;;
24030;SDS011;12240;51.142;22.486;2023-12-04T09:03:10;45.00;;;15.80;;
24030;SDS011;12240;51.142;22.486;2023-12-04T09:05:47;52.30;;;19.10;;
24030;SDS011;12240;51.142;22.486;2023-12-04T09:08:17;42.90;;;16.20;;
24030;SDS011;12240;51.142;22.486;2023-12-04T09:11:02;52.30;;;18.70;;
24030;SDS011;12240;51.142;22.486;2023-12-04T09:13:48;45.40;;;16.50;;
24030;SDS011;12240;51.142;22.486;2023-12-04T09:16:15;48.60;;;16.40;;
24030;SDS011;12240;51.142;22.486;2023-12-04T09:18:41;48.40;;;18.00;;
24030;SDS011;12240;51.142;22.486;2023-12-04T09:21:09;44.60;;;17.60;;
24030;SDS011;12240;51.142;22.486;2023-12-04T09:23:35;44.10;;;16.80;;
24030;SDS011;12240;51.142;22.486;2023-12-04T09:26:02;39.20;;;15.00;;
24030;SDS011;12240;51.142;22.486;2023-12-04T09:28:29;45.00;;;16.30;;
24030;SDS011;12240;51.142;22.486;2023-12-04T09:30:56;40.50;;;14.80;;
24030;SDS011;12240;51.142;22.486;2023-12-04T09:33:23;46.90;;;16.20;;
24030;SDS011;12240;51.142;22.486;2023-12-04T09:35:49;50.00;;;16.40;;
24030;SDS011;12240;51.142;22.486;2023-12-04T09:38:16;43.80;;;16.00;;
24030;SDS011;12240;51.142;22.486;2023-12-04T09:40:43;48.90;;;16.80;;
24030;SDS011;12240;51.142;22.486;2023-12-04T09:43:09;49.00;;;16.50;;
24030;SDS011;12240;51.142;22.486;2023-12-04T09:45:37;46.80;;;17.60;;
24030;SDS011;12240;51.142;22.486;2023-12-04T09:48:07;52.30;;;19.40;;
24030;SDS011;12240;51.142;22.486;2023-12-04T09:50:36;55.50;;;20.60;;
24030;SDS011;12240;51.142;22.486;2023-12-04T09:53:05;51.70;;;19.90;;
24030;SDS011;12240;51.142;22.486;2023-12-04T09:55:35;51.00;;;19.60;;
24030;SDS011;12240;51.142;22.486;2023-12-04T09:58:02;48.50;;;17.80;;
24030;SDS011;12240;51.142;22.486;2023-12-04T10:00:30;49.60;;;18.70;;
24030;SDS011;12240;51.142;22.486;2023-12-04T10:02:58;51.00;;;19.40;;
24030;SDS011;12240;51.142;22.486;2023-12-04T10:05:27;49.30;;;18.50;;
24030;SDS011;12240;51.142;22.486;2023-12-04T10:07:54;43.70;;;16.70;;
24030;SDS011;12240;51.142;22.486;2023-12-04T10:10:20;48.00;;;17.80;;
24030;SDS011;12240;51.142;22.486;2023-12-04T10:12:47;48.90;;;18.50;;
24030;SDS011;12240;51.142;22.486;2023-12-04T10:15:14;50.70;;;18.90;;
24030;SDS011;12240;51.142;22.486;2023-12-04T10:17:42;51.30;;;18.30;;
24030;SDS011;12240;51.142;22.486;2023-12-04T10:20:13;47.50;;;18.00;;
24030;SDS011;12240;51.142;22.486;2023-12-04T10:25:25;49.90;;;18.00;;
24030;SDS011;12240;51.142;22.486;2023-12-04T10:28:06;43.80;;;16.60;;
24030;SDS011;12240;51.142;22.486;2023-12-04T10:30:35;49.20;;;17.70;;
24030;SDS011;12240;51.142;22.486;2023-12-04T10:33:03;43.10;;;16.30;;
24030;SDS011;12240;51.142;22.486;2023-12-04T10:35:32;42.20;;;15.80;;
24030;SDS011;12240;51.142;22.486;2023-12-04T10:38:03;42.30;;;17.00;;
24030;SDS011;12240;51.142;22.486;2023-12-04T10:40:34;38.00;;;15.40;;
24030;SDS011;12240;51.142;22.486;2023-12-04T10:45:46;49.20;;;15.80;;
24030;SDS011;12240;51.142;22.486;2023-12-04T10:48:14;49.70;;;16.80;;
24030;SDS011;12240;51.142;22.486;2023-12-04T10:50:48;43.60;;;15.90;;
24030;SDS011;12240;51.142;22.486;2023-12-04T10:53:16;47.80;;;17.10;;
24030;SDS011;12240;51.142;22.486;2023-12-04T10:55:44;45.60;;;16.50;;
24030;SDS011;12240;51.142;22.486;2023-12-04T10:58:13;42.20;;;16.50;;
24030;SDS011;12240;51.142;22.486;2023-12-04T11:00:44;38.40;;;14.90;;
24030;SDS011;12240;51.142;22.486;2023-12-04T11:03:13;42.00;;;15.90;;
24030;SDS011;12240;51.142;22.486;2023-12-04T11:05:47;50.80;;;16.70;;
24030;SDS011;12240;51.142;22.486;2023-12-04T11:08:23;49.20;;;16.50;;
24030;SDS011;12240;51.142;22.486;2023-12-04T11:11:01;42.10;;;16.10;;
24030;SDS011;12240;51.142;22.486;2023-12-04T11:13:30;42.20;;;15.80;;
24030;SDS011;12240;51.142;22.486;2023-12-04T11:16:17;45.50;;;15.90;;
24030;SDS011;12240;51.142;22.486;2023-12-04T11:18:51;39.40;;;15.70;;
24030;SDS011;12240;51.142;22.486;2023-12-04T11:21:23;42.20;;;15.10;;
24030;SDS011;12240;51.142;22.486;2023-12-04T11:23:51;44.00;;;16.20;;
24030;SDS011;12240;51.142;22.486;2023-12-04T11:26:18;44.00;;;16.60;;
24030;SDS011;12240;51.142;22.486;2023-12-04T11:28:46;40.40;;;15.80;;
24030;SDS011;12240;51.142;22.486;2023-12-04T11:31:14;46.70;;;16.70;;
24030;SDS011;12240;51.142;22.486;2023-12-04T11:33:42;41.60;;;17.20;;
24030;SDS011;12240;51.142;22.486;2023-12-04T11:36:09;40.40;;;14.90;;
24030;SDS011;12240;51.142;22.486;2023-12-04T11:38:46;45.50;;;17.10;;
24030;SDS011;12240;51.142;22.486;2023-12-04T11:41:22;41.70;;;16.10;;
24030;SDS011;12240;51.142;22.486;2023-12-04T11:43:54;36.70;;;14.60;;
24030;SDS011;12240;51.142;22.486;2023-12-04T11:46:25;40.60;;;14.50;;
24030;SDS011;12240;51.142;22.486;2023-12-04T11:54:15;42.00;;;14.90;;
24030;SDS011;12240;51.142;22.486;2023-12-04T12:02:40;40.70;;;15.70;;
24030;SDS011;12240;51.142;22.486;2023-12-04T12:05:27;41.80;;;15.80;;
24030;SDS011;12240;51.142;22.486;2023-12-04T12:07:54;40.10;;;15.10;;
24030;SDS011;12240;51.142;22.486;2023-12-04T12:10:21;42.50;;;15.30;;
24030;SDS011;12240;51.142;22.486;2023-12-04T12:12:48;39.50;;;15.20;;
24030;SDS011;12240;51.142;22.486;2023-12-04T12:15:15;43.10;;;16.30;;
24030;SDS011;12240;51.142;22.486;2023-12-04T12:17:42;43.00;;;16.00;;
24030;SDS011;12240;51.142;22.486;2023-12-04T12:20:09;45.90;;;16.40;;
24030;SDS011;12240;51.142;22.486;2023-12-04T12:22:37;44.70;;;16.10;;
24030;SDS011;12240;51.142;22.486;2023-12-04T12:25:07;44.60;;;15.90;;
24030;SDS011;12240;51.142;22.486;2023-12-04T12:27:35;46.60;;;17.40;;
24030;SDS011;12240;51.142;22.486;2023-12-04T12:30:02;37.20;;;15.20;;
24030;SDS011;12240;51.142;22.486;2023-12-04T12:32:30;44.40;;;17.20;;
24030;SDS011;12240;51.142;22.486;2023-12-04T12:35:00;36.30;;;14.20;;
24030;SDS011;12240;51.142;22.486;2023-12-04T12:37:27;41.30;;;16.30;;
24030;SDS011;12240;51.142;22.486;2023-12-04T12:39:54;46.30;;;16.40;;
24030;SDS011;12240;51.142;22.486;2023-12-04T12:42:22;44.60;;;15.90;;
24030;SDS011;12240;51.142;22.486;2023-12-04T12:44:51;47.70;;;18.10;;
24030;SDS011;12240;51.142;22.486;2023-12-04T12:47:22;46.10;;;16.00;;
24030;SDS011;12240;51.142;22.486;2023-12-04T12:49:49;43.80;;;15.00;;
24030;SDS011;12240;51.142;22.486;2023-12-04T12:52:16;43.90;;;16.30;;
24030;SDS011;12240;51.142;22.486;2023-12-04T12:54:43;44.30;;;16.20;;
24030;SDS011;12240;51.142;22.486;2023-12-04T12:57:11;43.90;;;15.90;;
24030;SDS011;12240;51.142;22.486;2023-12-04T12:59:38;48.40;;;16.60;;
24030;SDS011;12240;51.142;22.486;2023-12-04T13:02:05;49.30;;;16.20;;
24030;SDS011;12240;51.142;22.486;2023-12-04T13:04:34;45.70;;;15.40;;
24030;SDS011;12240;51.142;22.486;2023-12-04T13:07:06;44.10;;;17.20;;
24030;SDS011;12240;51.142;22.486;2023-12-04T13:09:33;45.40;;;16.70;;
24030;SDS011;12240;51.142;22.486;2023-12-04T13:12:05;47.00;;;16.60;;
24030;SDS011;12240;51.142;22.486;2023-12-04T13:14:33;47.30;;;16.70;;
24030;SDS011;12240;51.142;22.486;2023-12-04T13:17:02;46.40;;;17.30;;
24030;SDS011;12240;51.142;22.486;2023-12-04T13:19:30;52.10;;;19.00;;
24030;SDS011;12240;51.142;22.486;2023-12-04T13:22:01;48.50;;;17.50;;
24030;SDS011;12240;51.142;22.486;2023-12-04T13:24:28;47.80;;;16.70;;
24030;SDS011;12240;51.142;22.486;2023-12-04T13:26:55;48.00;;;17.90;;
24030;SDS011;12240;51.142;22.486;2023-12-04T13:29:21;68.90;;;22.00;;
24030;SDS011;12240;51.142;22.486;2023-12-04T13:31:49;74.70;;;22.40;;
24030;SDS011;12240;51.142;22.486;2023-12-04T13:34:17;58.80;;;19.30;;
24030;SDS011;12240;51.142;22.486;2023-12-04T13:36:44;53.30;;;18.60;;
24030;SDS011;12240;51.142;22.486;2023-12-04T13:39:11;48.60;;;17.20;;
24030;SDS011;12240;51.142;22.486;2023-12-04T13:41:45;80.80;;;24.40;;
24030;SDS011;12240;51.142;22.486;2023-12-04T13:44:31;50.90;;;18.50;;
24030;SDS011;12240;51.142;22.486;2023-12-04T13:46:59;49.80;;;18.40;;
24030;SDS011;12240;51.142;22.486;2023-12-04T13:49:27;59.60;;;21.30;;
24030;SDS011;12240;51.142;22.486;2023-12-04T13:51:54;57.50;;;22.00;;
24030;SDS011;12240;51.142;22.486;2023-12-04T13:54:21;58.60;;;21.60;;
24030;SDS011;12240;51.142;22.486;2023-12-04T13:56:54;65.00;;;23.30;;
24030;SDS011;12240;51.142;22.486;2023-12-04T13:59:22;64.30;;;23.60;;
24030;SDS011;12240;51.142;22.486;2023-12-04T14:01:50;60.60;;;22.40;;
24030;SDS011;12240;51.142;22.486;2023-12-04T14:04:18;79.20;;;27.30;;
24030;SDS011;12240;51.142;22.486;2023-12-04T14:06:45;73.10;;;25.50;;
24030;SDS011;12240;51.142;22.486;2023-12-04T14:09:13;73.20;;;26.40;;
24030;SDS011;12240;51.142;22.486;2023-12-04T14:11:43;83.70;;;30.10;;
24030;SDS011;12240;51.142;22.486;2023-12-04T14:14:11;95.10;;;34.90;;
24030;SDS011;12240;51.142;22.486;2023-12-04T14:16:41;116.10;;;38.30;;
24030;SDS011;12240;51.142;22.486;2023-12-04T14:19:08;90.60;;;33.60;;
24030;SDS011;12240;51.142;22.486;2023-12-04T14:21:35;87.90;;;32.80;;
24030;SDS011;12240;51.142;22.486;2023-12-04T14:24:02;72.40;;;26.00;;
24030;SDS011;12240;51.142;22.486;2023-12-04T14:26:29;60.60;;;22.30;;
24030;SDS011;12240;51.142;22.486;2023-12-04T14:28:55;59.00;;;22.10;;
24030;SDS011;12240;51.142;22.486;2023-12-04T14:31:23;66.40;;;21.40;;
24030;SDS011;12240;51.142;22.486;2023-12-04T14:33:50;50.50;;;18.80;;
24030;SDS011;12240;51.142;22.486;2023-12-04T14:36:19;45.10;;;16.90;;
24030;SDS011;12240;51.142;22.486;2023-12-04T14:38:46;52.10;;;17.80;;